Ipuacu, Brazil
Current Conditions -  °F | °C
As of 5:00 PM on Friday 24 Oct 2014 (Local Time) from SBSV Reporting Station
Scattered Clouds Scattered Clouds  
Wind Chill: 79°   Ceiling: Unl
Heat Index: 81°   Visibility: 6mi
Dew Point: 66°   Wind: 9mph
Humidity: 65%   Direction: 120°ESE
Pressure: 29.94"   Gusts: NA
Location:  12.35°S, 39.08°W
Report Text: SBSV 242000Z 12008KT 9999 SCT017 26/19 Q1014
Loading
Personal Weather Stations






























Interactive Weather Map
Tropical Storm Tracking
New forecast layout! Learn more

10-Day Weather Forecast

Advertisements
Track Severe Weather on mobile